Time,TemperatureF,DewpointF,PressureIn,WindDirection,WindDirectionDegrees,WindSpeedMPH,WindSpeedGustMPH,Humidity,HourlyPrecipIn,Conditions,Clouds,dailyrainin,SoftwareType,DateUTC
2013-03-03 00:00:00,27.0,3.0,-100.00,SE,143,11.0,18.0,35,-99.99,,,-99.99,,2013-03-03 07:00:00,
2013-03-03 00:42:00,27.0,3.0,-100.00,SE,143,11.0,18.0,35,-99.99,,,-99.99,,2013-03-03 07:42:00,
2013-03-03 00:52:00,27.0,3.0,-100.00,SE,143,11.0,18.0,35,-99.99,,,-99.99,,2013-03-03 07:52:00,
2013-03-03 01:00:00,28.0,-2.0,-100.00,SSE,164,7.0,22.0,27,-99.99,,,-99.99,,2013-03-03 08:00:00,
2013-03-03 01:42:00,28.0,-2.0,-100.00,SSE,164,7.0,22.0,27,-99.99,,,-99.99,,2013-03-03 08:42:00,
2013-03-03 01:54:00,28.0,-2.0,-100.00,SSE,164,7.0,22.0,27,-99.99,,,-99.99,,2013-03-03 08:54:00,
2013-03-03 02:00:00,28.0,-2.0,-100.00,SSE,151,7.0,29.0,27,-99.99,,,-99.99,,2013-03-03 09:00:00,
2013-03-03 02:42:00,28.0,-2.0,-100.00,SSE,151,7.0,29.0,27,-99.99,,,-99.99,,2013-03-03 09:42:00,
2013-03-03 02:52:00,28.0,-2.0,-100.00,SSE,151,7.0,29.0,27,-99.99,,,-99.99,,2013-03-03 09:52:00,
2013-03-03 03:00:00,28.0,-1.0,-100.00,South,190,9.0,26.0,27,-99.99,,,-99.99,,2013-03-03 10:00:00,
2013-03-03 03:42:00,28.0,-1.0,-100.00,South,190,9.0,26.0,27,-99.99,,,-99.99,,2013-03-03 10:42:00,
2013-03-03 03:52:00,28.0,-1.0,-100.00,South,190,9.0,26.0,27,-99.99,,,-99.99,,2013-03-03 10:52:00,
2013-03-03 04:00:00,27.0,2.0,-100.00,South,181,12.0,27.0,33,-99.99,,,-99.99,,2013-03-03 11:00:00,
2013-03-03 04:42:00,27.0,2.0,-100.00,South,181,12.0,27.0,33,-99.99,,,-99.99,,2013-03-03 11:42:00,
2013-03-03 04:52:00,27.0,2.0,-100.00,South,181,12.0,27.0,33,-99.99,,,-99.99,,2013-03-03 11:52:00,
2013-03-03 05:00:00,27.0,6.0,-100.00,SSW,197,11.0,30.0,40,-99.99,,,-99.99,,2013-03-03 12:00:00,
2013-03-03 05:43:00,27.0,6.0,-100.00,SSW,197,11.0,30.0,40,-99.99,,,-99.99,,2013-03-03 12:43:00,
2013-03-03 05:53:00,27.0,6.0,-100.00,SSW,197,11.0,30.0,40,-99.99,,,-99.99,,2013-03-03 12:53:00,
2013-03-03 06:00:00,26.0,5.0,-100.00,South,170,8.0,21.0,40,-99.99,,,-99.99,,2013-03-03 13:00:00,
2013-03-03 06:42:00,26.0,5.0,-100.00,South,170,8.0,21.0,40,-99.99,,,-99.99,,2013-03-03 13:42:00,
2013-03-03 06:52:00,26.0,5.0,-100.00,South,170,8.0,21.0,40,-99.99,,,-99.99,,2013-03-03 13:52:00,
2013-03-03 07:00:00,26.0,5.0,-100.00,SSE,151,5.0,17.0,40,-99.99,,,-99.99,,2013-03-03 14:00:00,
2013-03-03 07:42:00,26.0,5.0,-100.00,SSE,151,5.0,17.0,40,-99.99,,,-99.99,,2013-03-03 14:42:00,
2013-03-03 07:52:00,26.0,5.0,-100.00,SSE,151,5.0,17.0,40,-99.99,,,-99.99,,2013-03-03 14:52:00,
2013-03-03 08:00:00,26.0,6.0,-100.00,NNE,20,3.0,8.0,42,-99.99,,,-99.99,,2013-03-03 15:00:00,
2013-03-03 08:42:00,26.0,6.0,-100.00,NNE,20,3.0,8.0,42,-99.99,,,-99.99,,2013-03-03 15:42:00,
2013-03-03 08:52:00,26.0,6.0,-100.00,NNE,20,3.0,8.0,42,-99.99,,,-99.99,,2013-03-03 15:52:00,
2013-03-03 09:00:00,26.0,6.0,-100.00,NNE,23,4.0,10.0,42,-99.99,,,-99.99,,2013-03-03 16:00:00,
2013-03-03 09:42:00,26.0,6.0,-100.00,NNE,23,4.0,10.0,42,-99.99,,,-99.99,,2013-03-03 16:42:00,
2013-03-03 09:52:00,26.0,6.0,-100.00,NNE,23,4.0,10.0,42,-99.99,,,-99.99,,2013-03-03 16:52:00,
2013-03-03 10:00:00,28.0,7.0,-100.00,SSE,168,8.0,25.0,40,-99.99,,,-99.99,,2013-03-03 17:00:00,
2013-03-03 10:42:00,28.0,7.0,-100.00,SSE,168,8.0,25.0,40,-99.99,,,-99.99,,2013-03-03 17:42:00,
2013-03-03 10:52:00,28.0,7.0,-100.00,SSE,168,8.0,25.0,40,-99.99,,,-99.99,,2013-03-03 17:52:00,
2013-03-03 11:00:00,27.0,5.0,-100.00,SW,223,14.0,32.0,38,-99.99,,,-99.99,,2013-03-03 18:00:00,
2013-03-03 11:42:00,27.0,5.0,-100.00,SW,223,14.0,32.0,38,-99.99,,,-99.99,,2013-03-03 18:42:00,
2013-03-03 11:52:00,27.0,5.0,-100.00,SW,223,14.0,32.0,38,-99.99,,,-99.99,,2013-03-03 18:52:00,
2013-03-03 12:00:00,25.0,11.0,-100.00,WSW,253,11.0,47.0,54,-99.99,,,-99.99,,2013-03-03 19:00:00,
2013-03-03 12:42:00,25.0,11.0,-100.00,WSW,253,11.0,47.0,54,-99.99,,,-99.99,,2013-03-03 19:42:00,
2013-03-03 12:52:00,25.0,11.0,-100.00,WSW,253,11.0,47.0,54,-99.99,,,-99.99,,2013-03-03 19:52:00,
2013-03-03 13:00:00,23.0,12.0,-100.00,SSW,197,18.0,35.0,62,-99.99,,,-99.99,,2013-03-03 20:00:00,
2013-03-03 13:43:00,23.0,12.0,-100.00,SSW,197,18.0,35.0,62,-99.99,,,-99.99,,2013-03-03 20:43:00,
2013-03-03 13:52:00,23.0,12.0,-100.00,SSW,197,18.0,35.0,62,-99.99,,,-99.99,,2013-03-03 20:52:00,
2013-03-03 14:00:00,25.0,12.0,-100.00,South,183,21.0,35.0,57,-99.99,,,-99.99,,2013-03-03 21:00:00,
2013-03-03 14:42:00,25.0,12.0,-100.00,South,183,21.0,35.0,57,-99.99,,,-99.99,,2013-03-03 21:42:00,
2013-03-03 14:52:00,25.0,12.0,-100.00,South,183,21.0,35.0,57,-99.99,,,-99.99,,2013-03-03 21:52:00,
2013-03-03 15:00:00,26.0,12.0,-100.00,South,187,26.0,50.0,54,-99.99,,,-99.99,,2013-03-03 22:00:00,
2013-03-03 15:42:00,26.0,12.0,-100.00,South,187,26.0,50.0,54,-99.99,,,-99.99,,2013-03-03 22:42:00,
2013-03-03 15:52:00,26.0,12.0,-100.00,South,187,26.0,50.0,54,-99.99,,,-99.99,,2013-03-03 22:52:00,
2013-03-03 16:00:00,25.0,13.0,-100.00,South,187,28.0,51.0,59,-99.99,,,-99.99,,2013-03-03 23:00:00,
2013-03-03 16:42:00,25.0,13.0,-100.00,South,187,28.0,51.0,59,-99.99,,,-99.99,,2013-03-03 23:42:00,
2013-03-03 16:52:00,25.0,13.0,-100.00,South,187,28.0,51.0,59,-99.99,,,-99.99,,2013-03-03 23:52:00,
2013-03-03 17:00:00,24.0,15.0,-100.00,SSW,193,20.0,45.0,68,-99.99,,,-99.99,,2013-03-04 00:00:00,
2013-03-03 17:42:00,24.0,15.0,-100.00,SSW,193,20.0,45.0,68,-99.99,,,-99.99,,2013-03-04 00:42:00,
2013-03-03 17:52:00,24.0,15.0,-100.00,SSW,193,20.0,45.0,68,-99.99,,,-99.99,,2013-03-04 00:52:00,
2013-03-03 18:00:00,20.0,18.0,-100.00,South,178,31.0,48.0,90,-99.99,,,-99.99,,2013-03-04 01:00:00,
2013-03-03 18:42:00,20.0,18.0,-100.00,South,178,31.0,48.0,90,-99.99,,,-99.99,,2013-03-04 01:42:00,
2013-03-03 18:52:00,20.0,18.0,-100.00,South,178,31.0,48.0,90,-99.99,,,-99.99,,2013-03-04 01:52:00,
2013-03-03 19:00:00,19.0,18.0,-100.00,South,181,27.0,43.0,96,-99.99,,,-99.99,,2013-03-04 02:00:00,
2013-03-03 19:42:00,19.0,18.0,-100.00,South,181,27.0,43.0,96,-99.99,,,-99.99,,2013-03-04 02:42:00,
2013-03-03 19:52:00,19.0,18.0,-100.00,South,181,27.0,43.0,96,-99.99,,,-99.99,,2013-03-04 02:52:00,
2013-03-03 20:00:00,21.0,19.0,-100.00,South,179,32.0,52.0,92,-99.99,,,-99.99,,2013-03-04 03:00:00,
2013-03-03 20:42:00,21.0,19.0,-100.00,South,179,32.0,52.0,92,-99.99,,,-99.99,,2013-03-04 03:42:00,
2013-03-03 20:52:00,21.0,19.0,-100.00,South,179,32.0,52.0,92,-99.99,,,-99.99,,2013-03-04 03:52:00,
2013-03-03 21:00:00,21.0,20.0,-100.00,South,179,29.0,48.0,94,-99.99,,,-99.99,,2013-03-04 04:00:00,
2013-03-03 21:42:00,21.0,20.0,-100.00,South,179,29.0,48.0,94,-99.99,,,-99.99,,2013-03-04 04:42:00,
2013-03-03 21:52:00,21.0,20.0,-100.00,South,179,29.0,48.0,94,-99.99,,,-99.99,,2013-03-04 04:52:00,
2013-03-03 22:00:00,22.0,20.0,-100.00,South,181,26.0,48.0,94,-99.99,,,-99.99,,2013-03-04 05:00:00,
2013-03-03 22:42:00,22.0,20.0,-100.00,South,181,26.0,48.0,94,-99.99,,,-99.99,,2013-03-04 05:42:00,
2013-03-03 22:52:00,22.0,20.0,-100.00,South,181,26.0,48.0,94,-99.99,,,-99.99,,2013-03-04 05:52:00,
2013-03-03 23:00:00,21.0,20.0,-100.00,South,174,19.0,31.0,97,-99.99,,,-99.99,,2013-03-04 06:00:00,
2013-03-03 23:42:00,21.0,20.0,-100.00,South,174,19.0,31.0,97,-99.99,,,-99.99,,2013-03-04 06:42:00,
2013-03-03 23:52:00,21.0,20.0,-100.00,South,174,19.0,31.0,97,-99.99,,,-99.99,,2013-03-04 06:52:00,